createdAt,value
2018-04-06T00:00:26.645Z,1.50
2018-04-06T00:01:26.872Z,1.40
2018-04-06T00:02:27.095Z,1.80
2018-04-06T00:03:27.319Z,1.90
2018-04-06T00:04:27.541Z,1.50
2018-04-06T00:05:27.768Z,1.60
2018-04-06T00:06:27.989Z,1.90
2018-04-06T00:07:28.219Z,1.50
2018-04-06T00:08:28.445Z,1.50
2018-04-06T00:09:28.668Z,1.10
2018-04-06T00:10:28.895Z,1.20
2018-04-06T00:11:29.114Z,1.70
2018-04-06T00:12:29.336Z,1.50
2018-04-06T00:13:29.583Z,1.60
2018-04-06T00:14:29.786Z,1.30
2018-04-06T00:15:30.012Z,2.80
2018-04-06T00:16:30.239Z,1.50
2018-04-06T00:17:30.462Z,1.40
2018-04-06T00:18:30.692Z,1.30
2018-04-06T00:19:30.912Z,1.50
2018-04-06T00:20:31.135Z,1.70
2018-04-06T00:21:31.359Z,1.20
2018-04-06T00:22:31.581Z,1.50
2018-04-06T00:23:31.805Z,1.70
2018-04-06T00:24:32.036Z,1.60
2018-04-06T00:25:32.253Z,1.60
2018-04-06T00:26:32.481Z,1.50
2018-04-06T00:27:32.698Z,2.00
2018-04-06T00:28:32.920Z,1.60
2018-04-06T00:29:33.149Z,1.40
2018-04-06T00:30:33.371Z,1.20
2018-04-06T00:31:33.596Z,1.40
2018-04-06T00:32:33.822Z,1.80
2018-04-06T00:33:34.053Z,1.90
2018-04-06T00:34:34.279Z,1.90
2018-04-06T00:35:34.498Z,1.50
2018-04-06T00:36:34.723Z,1.70
2018-04-06T00:37:34.947Z,1.70
2018-04-06T00:38:35.173Z,1.50
2018-04-06T00:39:35.396Z,1.80
2018-04-06T00:40:35.622Z,1.70
2018-04-06T00:41:35.845Z,1.80
2018-04-06T00:42:36.070Z,1.90
2018-04-06T00:43:36.289Z,1.40
2018-04-06T00:44:36.512Z,1.70
2018-04-06T00:45:36.737Z,1.80
2018-04-06T00:46:36.961Z,1.80
2018-04-06T00:47:37.184Z,1.70
2018-04-06T00:48:37.410Z,1.60
2018-04-06T00:49:37.633Z,1.00
2018-04-06T00:50:37.856Z,1.60
2018-04-06T00:51:38.082Z,1.50
2018-04-06T00:52:38.305Z,1.70
2018-04-06T00:53:38.531Z,1.30
2018-04-06T00:54:38.754Z,1.60
2018-04-06T00:55:38.979Z,1.60
2018-04-06T00:56:39.203Z,1.60
2018-04-06T00:57:39.427Z,1.20
2018-04-06T00:58:39.649Z,2.00
2018-04-06T00:59:39.875Z,1.80
2018-04-06T01:00:40.099Z,1.20
2018-04-06T01:01:40.324Z,1.50
2018-04-06T01:02:40.550Z,1.90
2018-04-06T01:03:40.773Z,2.00
2018-04-06T01:04:40.995Z,2.00
2018-04-06T01:05:41.219Z,1.70
2018-04-06T01:06:41.445Z,1.60
2018-04-06T01:07:41.675Z,1.70
2018-04-06T01:08:41.893Z,1.70
2018-04-06T01:09:42.118Z,1.70
2018-04-06T01:10:42.342Z,1.90
2018-04-06T01:11:42.564Z,2.10
2018-04-06T01:12:42.791Z,2.10
2018-04-06T01:13:43.012Z,1.30
2018-04-06T01:14:43.243Z,1.70
2018-04-06T01:15:43.464Z,1.90
2018-04-06T01:16:43.685Z,1.10
2018-04-06T01:17:43.912Z,2.20
2018-04-06T01:18:44.142Z,1.80
2018-04-06T01:19:44.366Z,1.50
2018-04-06T01:20:44.593Z,1.30
2018-04-06T01:21:44.815Z,1.80
2018-04-06T01:22:45.039Z,1.50
2018-04-06T01:23:45.264Z,1.30
2018-04-06T01:24:45.485Z,1.60
2018-04-06T01:25:45.711Z,1.70
2018-04-06T01:26:45.932Z,2.30
2018-04-06T01:27:46.159Z,1.40
2018-04-06T01:28:46.383Z,1.60
2018-04-06T01:29:46.606Z,1.70
2018-04-06T01:30:46.830Z,2.20
2018-04-06T01:31:47.054Z,1.80
2018-04-06T01:32:47.276Z,2.10
2018-04-06T01:33:47.498Z,1.70
2018-04-06T01:34:47.725Z,1.80
2018-04-06T01:35:47.952Z,1.90
2018-04-06T01:36:48.176Z,2.30
2018-04-06T01:37:48.400Z,2.10
2018-04-06T01:38:48.627Z,1.60
2018-04-06T01:39:48.848Z,1.60
2018-04-06T01:40:49.069Z,2.00
2018-04-06T01:41:49.293Z,1.70
2018-04-06T01:42:49.517Z,1.80
2018-04-06T01:43:49.745Z,1.60
2018-04-06T01:44:49.970Z,1.90
2018-04-06T01:45:50.192Z,1.90
2018-04-06T01:46:50.416Z,2.10
2018-04-06T01:47:50.639Z,2.20
2018-04-06T01:48:50.861Z,1.50
2018-04-06T01:49:51.087Z,1.80
2018-04-06T01:50:51.314Z,2.10
2018-04-06T01:51:51.533Z,1.90
2018-04-06T01:52:51.762Z,2.00
2018-04-06T01:53:51.983Z,1.70
2018-04-06T01:54:52.207Z,1.70
2018-04-06T01:55:52.433Z,2.50
2018-04-06T01:56:52.656Z,1.70
2018-04-06T01:57:52.882Z,1.70
2018-04-06T01:58:53.102Z,1.60
2018-04-06T01:59:53.365Z,1.30
2018-04-06T02:00:53.565Z,1.70
2018-04-06T02:01:53.781Z,1.80
2018-04-06T02:02:54.004Z,1.90
2018-04-06T02:03:54.229Z,2.00
2018-04-06T02:04:54.450Z,2.60
2018-04-06T02:05:54.674Z,1.70
2018-04-06T02:06:54.894Z,1.50
2018-04-06T02:07:55.121Z,1.90
2018-04-06T02:08:55.344Z,1.60
2018-04-06T02:09:55.619Z,2.00
2018-04-06T02:10:55.788Z,1.80
2018-04-06T02:11:56.013Z,1.60
2018-04-06T02:12:56.234Z,1.80
2018-04-06T02:13:56.456Z,1.70
2018-04-06T02:14:56.680Z,1.50
2018-04-06T02:15:56.903Z,1.60
2018-04-06T02:16:57.129Z,1.80
2018-04-06T02:17:57.353Z,1.50
2018-04-06T02:18:57.579Z,1.70
2018-04-06T02:19:57.804Z,2.50
2018-04-06T02:20:58.031Z,1.90
2018-04-06T02:21:58.251Z,2.20
2018-04-06T02:22:58.477Z,1.60
2018-04-06T02:23:58.702Z,1.80
2018-04-06T02:24:58.923Z,1.80
2018-04-06T02:25:59.150Z,1.30
2018-04-06T02:26:59.372Z,1.80
2018-04-06T02:27:59.594Z,1.60
2018-04-06T02:28:59.820Z,1.50
2018-04-06T02:30:00.044Z,1.90
2018-04-06T02:31:00.272Z,1.80
2018-04-06T02:32:00.496Z,1.80
2018-04-06T02:33:00.713Z,2.30
2018-04-06T02:34:00.936Z,2.10
2018-04-06T02:35:01.161Z,1.60
2018-04-06T02:36:01.385Z,1.80
2018-04-06T02:37:01.608Z,1.50
2018-04-06T02:38:01.841Z,2.40
2018-04-06T02:39:02.061Z,1.80
2018-04-06T02:40:02.290Z,1.90
2018-04-06T02:41:02.511Z,1.80
2018-04-06T02:42:02.730Z,2.00
2018-04-06T02:43:02.953Z,2.20
2018-04-06T02:44:03.178Z,1.50
2018-04-06T02:45:03.401Z,1.40
2018-04-06T02:46:03.628Z,1.80
2018-04-06T02:47:03.848Z,1.90
2018-04-06T02:48:04.071Z,1.70
2018-04-06T02:49:04.298Z,2.20
2018-04-06T02:50:04.522Z,1.50
2018-04-06T02:51:04.754Z,1.70
2018-04-06T02:52:04.974Z,1.70
2018-04-06T02:53:05.201Z,1.80
2018-04-06T02:54:05.421Z,1.80
2018-04-06T02:55:05.647Z,2.00
2018-04-06T02:56:05.872Z,2.20
2018-04-06T02:57:06.097Z,1.50
2018-04-06T02:58:06.317Z,1.80
2018-04-06T02:59:06.543Z,1.60
2018-04-06T03:00:06.765Z,1.90
2018-04-06T03:01:06.991Z,1.90
2018-04-06T03:02:07.211Z,2.10
2018-04-06T03:03:07.488Z,1.40
2018-04-06T03:04:07.660Z,1.40
2018-04-06T03:05:07.883Z,1.80
2018-04-06T03:06:08.109Z,2.00
2018-04-06T03:07:08.334Z,1.60
2018-04-06T03:08:08.555Z,1.90
2018-04-06T03:09:08.781Z,2.20
2018-04-06T03:10:09.004Z,1.70
2018-04-06T03:11:09.228Z,1.80
2018-04-06T03:12:09.455Z,1.50
2018-04-06T03:13:09.674Z,2.00
2018-04-06T03:14:09.897Z,1.40
2018-04-06T03:15:10.123Z,1.70
2018-04-06T03:16:10.346Z,1.80
2018-04-06T03:17:10.570Z,2.50
2018-04-06T03:18:10.792Z,1.80
2018-04-06T03:19:11.017Z,2.20
2018-04-06T03:20:11.240Z,2.50
2018-04-06T03:21:11.463Z,1.80
2018-04-06T03:22:11.687Z,2.20
2018-04-06T03:23:11.911Z,1.70
2018-04-06T03:24:12.137Z,1.50
2018-04-06T03:25:12.361Z,2.20
2018-04-06T03:26:12.585Z,1.90
2018-04-06T03:27:12.809Z,2.10
2018-04-06T03:28:13.034Z,2.30
2018-04-06T03:29:13.256Z,1.70
2018-04-06T03:30:13.481Z,1.60
2018-04-06T03:31:13.708Z,1.40
2018-04-06T03:32:13.926Z,2.10
2018-04-06T03:33:14.152Z,1.50
2018-04-06T03:34:14.376Z,2.00
2018-04-06T03:35:14.605Z,1.50
2018-04-06T03:36:14.823Z,1.90
2018-04-06T03:37:15.046Z,1.80
2018-04-06T03:38:15.269Z,1.60
2018-04-06T03:39:15.492Z,1.30
2018-04-06T03:40:15.717Z,2.10
2018-04-06T03:41:15.939Z,2.00
2018-04-06T03:42:16.162Z,1.80
2018-04-06T03:43:16.386Z,1.50
2018-04-06T03:44:16.611Z,1.40
2018-04-06T03:45:16.835Z,1.80
2018-04-06T03:46:17.057Z,1.90
2018-04-06T03:47:17.282Z,1.40
2018-04-06T03:48:17.505Z,2.10
2018-04-06T03:49:17.731Z,2.50
2018-04-06T03:50:17.951Z,1.40
2018-04-06T03:51:18.173Z,1.70
2018-04-06T03:52:18.398Z,1.50
2018-04-06T03:53:18.623Z,1.90
2018-04-06T03:54:18.844Z,2.00
2018-04-06T03:55:19.066Z,2.10
2018-04-06T03:56:19.289Z,1.70
2018-04-06T03:57:19.514Z,2.30
2018-04-06T03:58:19.735Z,2.00
2018-04-06T03:59:19.960Z,1.40
2018-04-06T04:00:20.183Z,1.90
2018-04-06T04:01:20.406Z,1.80
2018-04-06T04:02:20.631Z,1.70
2018-04-06T04:03:20.852Z,2.50
2018-04-06T04:04:21.076Z,2.10
2018-04-06T04:05:21.300Z,1.80
2018-04-06T04:06:21.525Z,1.80
2018-04-06T04:07:21.746Z,2.20
2018-04-06T04:08:21.970Z,1.90
2018-04-06T04:09:22.193Z,1.60
2018-04-06T04:10:22.417Z,1.70
2018-04-06T04:11:22.642Z,1.90
2018-04-06T04:12:22.865Z,2.00
2018-04-06T04:13:23.089Z,2.20
2018-04-06T04:14:23.312Z,2.00
2018-04-06T04:15:23.534Z,1.50
2018-04-06T04:16:23.759Z,1.80
2018-04-06T04:17:23.982Z,1.30
2018-04-06T04:18:24.246Z,1.60
2018-04-06T04:19:24.431Z,1.70
2018-04-06T04:20:24.653Z,2.00
2018-04-06T04:21:24.874Z,1.70
2018-04-06T04:22:25.098Z,2.30
2018-04-06T04:23:25.323Z,2.50
2018-04-06T04:24:25.545Z,1.90
2018-04-06T04:25:25.767Z,1.70
2018-04-06T04:26:25.990Z,1.50
2018-04-06T04:27:26.214Z,1.80
2018-04-06T04:28:26.435Z,1.60
2018-04-06T04:29:26.659Z,1.50
2018-04-06T04:30:26.897Z,1.90
2018-04-06T04:31:27.107Z,1.60
2018-04-06T04:32:27.329Z,1.60
2018-04-06T04:33:27.551Z,2.20
2018-04-06T04:34:27.820Z,2.70
2018-04-06T04:35:27.999Z,2.40
2018-04-06T04:36:28.222Z,2.70
2018-04-06T04:37:28.447Z,2.20
2018-04-06T04:38:28.671Z,1.70
2018-04-06T04:39:28.893Z,2.00
2018-04-06T04:40:29.118Z,1.90
2018-04-06T04:41:29.341Z,1.70
2018-04-06T04:42:29.566Z,1.60
2018-04-06T04:43:29.788Z,2.00
2018-04-06T04:44:30.016Z,1.50
2018-04-06T04:45:30.236Z,1.20
2018-04-06T04:46:30.457Z,1.90
2018-04-06T04:47:30.680Z,1.80
2018-04-06T04:48:30.905Z,2.30
2018-04-06T04:49:31.127Z,1.90
2018-04-06T04:50:31.351Z,1.80
2018-04-06T04:51:31.574Z,2.00
2018-04-06T04:52:31.796Z,1.80
2018-04-06T04:53:32.019Z,2.00
2018-04-06T04:54:32.243Z,2.10
2018-04-06T04:55:32.468Z,1.90
2018-04-06T04:56:32.692Z,1.90
2018-04-06T04:57:32.914Z,2.00
2018-04-06T04:58:33.143Z,1.90
2018-04-06T04:59:33.363Z,2.10
2018-04-06T05:00:33.591Z,1.80
2018-04-06T05:01:33.813Z,2.10
2018-04-06T05:02:34.033Z,1.80
2018-04-06T05:03:34.259Z,2.20
2018-04-06T05:04:34.484Z,1.90
2018-04-06T05:05:34.707Z,2.10
2018-04-06T05:06:34.929Z,2.20
2018-04-06T05:07:35.153Z,2.60
2018-04-06T05:08:35.376Z,2.60
2018-04-06T05:09:35.597Z,2.40
2018-04-06T05:10:35.823Z,2.50
2018-04-06T05:11:36.044Z,2.10
2018-04-06T05:12:36.270Z,2.20
2018-04-06T05:13:36.493Z,2.50
2018-04-06T05:14:36.714Z,2.60
2018-04-06T05:15:36.939Z,2.20
2018-04-06T05:16:37.160Z,2.20
2018-04-06T05:17:37.416Z,2.30
2018-04-06T05:18:37.606Z,2.20
2018-04-06T05:19:37.831Z,2.40
2018-04-06T05:20:38.055Z,2.30
2018-04-06T05:21:38.277Z,3.40
2018-04-06T05:22:38.502Z,3.50
2018-04-06T05:23:38.726Z,2.60
2018-04-06T05:24:38.989Z,3.40
2018-04-06T05:25:39.171Z,2.70
2018-04-06T05:26:39.398Z,2.60
2018-04-06T05:27:39.624Z,3.60
2018-04-06T05:28:39.849Z,2.90
2018-04-06T05:29:40.073Z,2.20
2018-04-06T05:30:40.316Z,2.60
2018-04-06T05:31:40.541Z,2.40
2018-04-06T05:32:40.764Z,2.10
2018-04-06T05:33:40.990Z,2.20
2018-04-06T05:34:41.214Z,1.90
2018-04-06T05:35:41.439Z,2.60
2018-04-06T05:36:41.667Z,2.50
2018-04-06T05:37:41.886Z,2.30
2018-04-06T05:38:42.174Z,3.20
2018-04-06T05:39:42.335Z,3.40
2018-04-06T05:40:42.561Z,4.30
2018-04-06T05:41:42.787Z,4.70
2018-04-06T05:42:43.011Z,5.20
2018-04-06T05:43:43.235Z,6.10
2018-04-06T05:44:43.462Z,4.80
2018-04-06T05:45:43.690Z,4.20
2018-04-06T05:46:43.910Z,5.10
2018-04-06T05:47:44.134Z,5.00
2018-04-06T05:48:44.359Z,4.60
2018-04-06T05:49:44.584Z,3.70
2018-04-06T05:50:44.808Z,5.20
2018-04-06T05:51:45.034Z,5.00
2018-04-06T05:52:45.257Z,5.10
2018-04-06T05:53:45.483Z,5.00
2018-04-06T05:54:45.709Z,5.10
2018-04-06T05:55:45.932Z,4.50
2018-04-06T05:56:46.160Z,5.20
2018-04-06T05:57:46.390Z,4.80
2018-04-06T05:58:46.609Z,5.00
2018-04-06T05:59:46.836Z,3.90
2018-04-06T06:00:47.061Z,4.20
2018-04-06T06:01:47.288Z,4.30
2018-04-06T06:02:47.513Z,4.70
2018-04-06T06:03:47.740Z,4.30
2018-04-06T06:04:47.966Z,4.20
2018-04-06T06:05:48.193Z,4.20
2018-04-06T06:06:48.418Z,4.40
2018-04-06T06:07:48.644Z,4.40
2018-04-06T06:08:48.870Z,4.00
2018-04-06T06:09:49.113Z,3.50
2018-04-06T06:10:49.340Z,3.00
2018-04-06T06:11:49.568Z,3.80
2018-04-06T06:12:49.796Z,3.60
2018-04-06T06:13:50.025Z,3.60
2018-04-06T06:14:50.252Z,3.30
2018-04-06T06:15:50.481Z,2.60
2018-04-06T06:16:50.709Z,3.40
2018-04-06T06:17:50.988Z,3.70
2018-04-06T06:18:51.163Z,2.30
2018-04-06T06:19:51.391Z,2.90
2018-04-06T06:20:51.620Z,2.50
2018-04-06T06:21:51.851Z,2.30
2018-04-06T06:22:52.079Z,2.70
2018-04-06T06:23:52.310Z,3.20
2018-04-06T06:24:52.537Z,3.00
2018-04-06T06:25:52.775Z,2.30
2018-04-06T06:26:52.997Z,2.80
2018-04-06T06:27:53.227Z,2.80
2018-04-06T06:28:53.453Z,2.50
2018-04-06T06:29:53.684Z,2.30
2018-04-06T06:30:53.912Z,2.70
2018-04-06T06:31:54.143Z,2.50
2018-04-06T06:32:54.371Z,2.80
2018-04-06T06:33:54.601Z,3.20
2018-04-06T06:34:54.829Z,3.10
2018-04-06T06:35:55.058Z,2.90
2018-04-06T06:36:55.311Z,3.60
2018-04-06T06:37:55.517Z,3.10
2018-04-06T06:38:55.745Z,3.30
2018-04-06T06:39:55.983Z,2.80
2018-04-06T06:40:56.209Z,3.50
2018-04-06T06:41:56.435Z,4.00
2018-04-06T06:42:56.743Z,3.60
2018-04-06T06:43:56.900Z,3.50
2018-04-06T06:44:57.127Z,3.80
2018-04-06T06:45:57.355Z,3.50
2018-04-06T06:46:57.587Z,3.60
2018-04-06T06:47:57.820Z,3.60
2018-04-06T06:48:58.049Z,3.60
2018-04-06T06:49:58.278Z,3.30
2018-04-06T06:50:58.514Z,3.40
2018-04-06T06:51:58.735Z,3.20
2018-04-06T06:52:58.970Z,3.30
2018-04-06T06:53:59.202Z,3.30
2018-04-06T06:54:59.426Z,2.80
2018-04-06T06:55:59.656Z,3.40
2018-04-06T06:56:59.886Z,2.80
2018-04-06T06:58:00.115Z,2.70
2018-04-06T06:59:00.348Z,3.90
2018-04-06T07:00:00.577Z,3.30
2018-04-06T07:01:00.805Z,3.10
2018-04-06T07:02:01.038Z,3.40
2018-04-06T07:03:01.263Z,3.80
2018-04-06T07:04:01.489Z,3.40
2018-04-06T07:05:01.724Z,3.60
2018-04-06T07:06:01.948Z,3.30
2018-04-06T07:07:02.175Z,2.90
2018-04-06T07:08:02.409Z,3.50
2018-04-06T07:09:02.632Z,3.20
2018-04-06T07:10:02.858Z,3.20
2018-04-06T07:11:03.092Z,3.20
2018-04-06T07:12:03.321Z,3.10
2018-04-06T07:13:03.549Z,3.10
2018-04-06T07:14:03.829Z,3.50
2018-04-06T07:15:04.011Z,3.30
2018-04-06T07:16:04.235Z,3.70
2018-04-06T07:17:04.462Z,7.50
2018-04-06T07:18:04.691Z,2.90
2018-04-06T07:19:04.920Z,5.10
2018-04-06T07:20:05.154Z,2.70
2018-04-06T07:21:05.384Z,2.80
2018-04-06T07:22:05.612Z,3.80
2018-04-06T07:23:05.839Z,4.60
2018-04-06T07:24:06.069Z,4.00
2018-04-06T07:25:06.297Z,4.70
2018-04-06T07:26:06.552Z,3.40
2018-04-06T07:27:06.755Z,3.60
2018-04-06T07:28:06.977Z,3.50
2018-04-06T07:29:07.205Z,4.10
2018-04-06T07:30:07.428Z,3.60
2018-04-06T07:31:07.657Z,3.00
2018-04-06T07:32:07.887Z,3.30
2018-04-06T07:33:08.113Z,3.10
2018-04-06T07:34:08.338Z,3.30
2018-04-06T07:35:08.570Z,2.60
2018-04-06T07:36:08.795Z,3.20
2018-04-06T07:37:09.024Z,3.00
2018-04-06T07:38:09.258Z,3.60
2018-04-06T07:39:09.478Z,2.90
2018-04-06T07:40:09.707Z,2.70
2018-04-06T07:41:09.933Z,3.40
2018-04-06T07:42:10.170Z,2.90
2018-04-06T07:43:10.393Z,3.30
2018-04-06T07:44:10.643Z,2.80
2018-04-06T07:45:10.851Z,3.30
2018-04-06T07:46:11.072Z,3.60
2018-04-06T07:47:11.306Z,3.70
2018-04-06T07:48:11.533Z,3.70
2018-04-06T07:49:11.761Z,3.30
2018-04-06T07:50:11.989Z,4.70
2018-04-06T07:51:12.217Z,5.90
2018-04-06T07:52:12.444Z,6.00
2018-04-06T07:53:12.673Z,5.50
2018-04-06T07:54:12.902Z,5.80
2018-04-06T07:55:13.129Z,5.60
2018-04-06T07:56:13.363Z,5.90
2018-04-06T07:57:13.585Z,5.30
2018-04-06T07:58:13.819Z,6.30
2018-04-06T07:59:14.047Z,5.10
2018-04-06T08:00:14.272Z,5.60
2018-04-06T08:01:14.501Z,5.10
2018-04-06T08:02:14.733Z,4.80
2018-04-06T08:03:14.956Z,4.80
2018-04-06T08:04:15.183Z,5.20
2018-04-06T08:05:15.412Z,4.90
2018-04-06T08:06:15.649Z,5.60
2018-04-06T08:07:15.873Z,4.50
2018-04-06T08:08:16.108Z,4.40
2018-04-06T08:09:16.335Z,5.00
2018-04-06T08:10:16.553Z,4.30
2018-04-06T08:11:16.782Z,4.30
2018-04-06T08:12:17.012Z,3.70
2018-04-06T08:13:17.246Z,4.30
2018-04-06T08:14:17.468Z,3.90
2018-04-06T08:15:17.703Z,3.00
2018-04-06T08:16:17.919Z,3.50
2018-04-06T08:17:18.153Z,3.90
2018-04-06T08:18:18.384Z,4.30
2018-04-06T08:19:18.612Z,5.40
2018-04-06T08:20:18.840Z,4.00
2018-04-06T08:21:19.075Z,4.20
2018-04-06T08:22:19.295Z,4.10
2018-04-06T08:23:19.523Z,4.20
2018-04-06T08:24:19.752Z,4.30
2018-04-06T08:25:19.980Z,3.50
2018-04-06T08:26:20.275Z,3.60
2018-04-06T08:27:20.440Z,4.30
2018-04-06T08:28:20.668Z,3.30
2018-04-06T08:29:20.895Z,3.00
2018-04-06T08:30:21.125Z,3.20
2018-04-06T08:31:21.356Z,3.10
2018-04-06T08:32:21.587Z,2.90
2018-04-06T08:33:21.811Z,3.70
2018-04-06T08:34:22.038Z,2.70
2018-04-06T08:35:22.265Z,2.40
2018-04-06T08:36:22.493Z,3.00
2018-04-06T08:37:22.726Z,2.60
2018-04-06T08:38:22.958Z,3.00
2018-04-06T08:39:23.178Z,3.10
2018-04-06T08:40:23.405Z,3.40
2018-04-06T08:41:23.632Z,2.50
2018-04-06T08:42:23.864Z,3.20
2018-04-06T08:43:24.091Z,3.20
2018-04-06T08:44:24.320Z,2.80
2018-04-06T08:45:24.545Z,3.20
2018-04-06T08:46:24.776Z,2.50
2018-04-06T08:47:25.002Z,3.20
2018-04-06T08:48:25.232Z,2.50
2018-04-06T08:49:25.462Z,2.50
2018-04-06T08:50:25.689Z,2.60
2018-04-06T08:51:25.925Z,2.00
2018-04-06T08:52:26.147Z,2.20
2018-04-06T08:53:26.372Z,2.60
2018-04-06T08:54:26.598Z,2.10
2018-04-06T08:55:26.823Z,2.90
2018-04-06T08:56:27.052Z,2.10
2018-04-06T08:57:27.280Z,2.20
2018-04-06T08:58:27.506Z,1.90
2018-04-06T08:59:27.739Z,2.60
2018-04-06T09:00:27.963Z,1.80
2018-04-06T09:01:28.188Z,2.00
2018-04-06T09:02:28.414Z,2.50
2018-04-06T09:03:28.641Z,2.00
2018-04-06T09:04:28.868Z,2.00
2018-04-06T09:05:29.096Z,1.80
2018-04-06T09:06:29.329Z,2.50
2018-04-06T09:07:29.556Z,1.90
2018-04-06T09:08:29.786Z,1.70
2018-04-06T09:09:30.009Z,1.90
2018-04-06T09:10:30.238Z,2.20
2018-04-06T09:11:30.467Z,1.30
2018-04-06T09:12:30.712Z,1.60
2018-04-06T09:13:30.926Z,1.40
2018-04-06T09:14:31.153Z,1.50
2018-04-06T09:15:31.404Z,1.60
2018-04-06T09:16:31.636Z,1.30
2018-04-06T09:17:31.838Z,1.40
2018-04-06T09:18:32.069Z,1.10
2018-04-06T09:19:32.304Z,1.50
2018-04-06T09:20:32.527Z,1.20
2018-04-06T09:21:32.761Z,1.30
2018-04-06T09:22:32.979Z,1.60
2018-04-06T09:23:33.207Z,1.60
2018-04-06T09:24:33.440Z,1.50
2018-04-06T09:25:33.665Z,1.80
2018-04-06T09:26:33.897Z,1.40
2018-04-06T09:27:34.134Z,1.90
2018-04-06T09:28:34.352Z,1.90
2018-04-06T09:29:34.576Z,2.10
2018-04-06T09:30:34.807Z,1.50
2018-04-06T09:31:35.036Z,1.80
2018-04-06T09:32:35.269Z,2.00
2018-04-06T09:33:35.499Z,1.70
2018-04-06T09:34:35.723Z,2.30
2018-04-06T09:35:35.953Z,1.60
2018-04-06T09:36:36.176Z,1.70
2018-04-06T09:37:36.411Z,1.60
2018-04-06T09:38:36.632Z,1.80
2018-04-06T09:39:36.863Z,2.60
2018-04-06T09:40:37.091Z,1.60
2018-04-06T09:41:37.332Z,1.90
2018-04-06T09:42:37.548Z,1.50
2018-04-06T09:43:37.778Z,1.40
2018-04-06T09:44:38.005Z,1.60
2018-04-06T09:45:38.240Z,1.80
2018-04-06T09:46:38.458Z,2.20
2018-04-06T09:47:38.689Z,2.40
2018-04-06T09:48:38.921Z,2.10
2018-04-06T09:49:39.143Z,1.50
2018-04-06T09:50:39.374Z,1.50
2018-04-06T09:51:39.598Z,1.70
2018-04-06T09:52:39.827Z,1.60
2018-04-06T09:53:40.051Z,1.90
2018-04-06T09:54:40.284Z,1.50
2018-04-06T09:55:40.520Z,1.40
2018-04-06T09:56:40.745Z,1.50
2018-04-06T09:57:40.983Z,1.70
2018-04-06T09:58:41.202Z,2.10
2018-04-06T09:59:41.431Z,1.90
2018-04-06T10:00:41.660Z,2.00
2018-04-06T10:01:41.890Z,1.40
2018-04-06T10:02:42.124Z,1.30
2018-04-06T10:03:42.352Z,1.40
2018-04-06T10:04:42.570Z,1.50
2018-04-06T10:05:42.805Z,1.10
2018-04-06T10:06:43.027Z,1.60
2018-04-06T10:07:43.271Z,1.40
2018-04-06T10:08:43.484Z,1.50
2018-04-06T10:09:43.711Z,1.40
2018-04-06T10:10:43.939Z,1.30
2018-04-06T10:11:44.162Z,1.80
2018-04-06T10:12:44.390Z,1.50
2018-04-06T10:13:44.619Z,1.50
2018-04-06T10:14:44.843Z,1.40
2018-04-06T10:15:45.074Z,1.50
2018-04-06T10:16:45.301Z,1.20
2018-04-06T10:17:45.530Z,1.60
2018-04-06T10:18:45.763Z,1.40
2018-04-06T10:19:45.989Z,1.20
2018-04-06T10:20:46.222Z,1.20
2018-04-06T10:21:46.453Z,1.00
2018-04-06T10:22:46.678Z,1.70
2018-04-06T10:23:46.908Z,1.40
2018-04-06T10:24:47.136Z,1.10
2018-04-06T10:25:47.363Z,1.10
2018-04-06T10:26:47.589Z,1.90
2018-04-06T10:27:47.818Z,1.20
2018-04-06T10:28:48.049Z,1.60
2018-04-06T10:29:48.273Z,1.50
2018-04-06T10:30:48.505Z,1.90
2018-04-06T10:31:48.733Z,2.50
2018-04-06T10:32:48.962Z,2.10
2018-04-06T10:33:49.190Z,2.10
2018-04-06T10:34:49.432Z,2.40
2018-04-06T10:35:49.645Z,2.20
2018-04-06T10:36:49.872Z,3.10
2018-04-06T10:37:50.103Z,2.40
2018-04-06T10:38:50.334Z,3.30
2018-04-06T10:39:50.561Z,2.70
2018-04-06T10:40:50.795Z,3.50
2018-04-06T10:41:51.015Z,3.00
2018-04-06T10:42:51.247Z,2.70
2018-04-06T10:43:51.474Z,2.50
2018-04-06T10:44:51.704Z,2.50
2018-04-06T10:45:51.937Z,2.90
2018-04-06T10:46:52.182Z,2.60
2018-04-06T10:47:52.386Z,2.80
2018-04-06T10:48:52.616Z,2.50
2018-04-06T10:49:52.843Z,2.10
2018-04-06T10:50:53.073Z,1.30
2018-04-06T10:51:53.301Z,1.10
2018-04-06T10:52:53.530Z,1.10
2018-04-06T10:53:53.758Z,0.80
2018-04-06T10:54:53.986Z,0.70
2018-04-06T10:55:54.216Z,1.10
2018-04-06T10:56:54.448Z,1.00
2018-04-06T10:57:54.679Z,1.30
2018-04-06T10:58:54.905Z,1.10
2018-04-06T10:59:55.134Z,1.30
2018-04-06T11:00:55.376Z,0.90
2018-04-06T11:01:55.603Z,1.10
2018-04-06T11:02:55.837Z,0.80
2018-04-06T11:03:56.060Z,0.90
2018-04-06T11:04:56.288Z,1.00
2018-04-06T11:05:56.517Z,0.80
2018-04-06T11:06:56.745Z,1.00
2018-04-06T11:07:56.978Z,0.80
2018-04-06T11:08:57.206Z,0.60
2018-04-06T11:09:57.431Z,1.10
2018-04-06T11:10:57.665Z,0.90
2018-04-06T11:11:57.892Z,1.20
2018-04-06T11:12:58.123Z,1.30
2018-04-06T11:13:58.350Z,0.80
2018-04-06T11:14:58.581Z,1.10
2018-04-06T11:15:58.802Z,0.80
2018-04-06T11:16:59.036Z,0.70
2018-04-06T11:17:59.272Z,0.70
2018-04-06T11:18:59.503Z,0.80
2018-04-06T11:19:59.729Z,0.80
2018-04-06T11:20:59.958Z,0.70
2018-04-06T11:22:00.191Z,1.00
2018-04-06T11:23:00.427Z,0.70
2018-04-06T11:24:00.639Z,0.90
2018-04-06T11:25:00.869Z,0.80
2018-04-06T11:26:01.104Z,1.30
2018-04-06T11:27:01.326Z,1.00
2018-04-06T11:28:01.555Z,1.30
2018-04-06T11:29:01.786Z,0.80
2018-04-06T11:30:02.015Z,0.90
2018-04-06T11:31:02.244Z,1.00
2018-04-06T11:32:02.477Z,0.90
2018-04-06T11:33:02.702Z,0.80
2018-04-06T11:34:02.931Z,1.20
2018-04-06T11:35:03.161Z,1.00
2018-04-06T11:36:03.387Z,0.80
2018-04-06T11:37:03.614Z,0.60
2018-04-06T11:38:03.853Z,0.70
2018-04-06T11:39:04.073Z,0.70
2018-04-06T11:40:04.300Z,0.90
2018-04-06T11:41:04.531Z,1.10
2018-04-06T11:42:04.759Z,1.00
2018-04-06T11:43:04.989Z,0.80
2018-04-06T11:44:05.239Z,1.30
2018-04-06T11:45:05.445Z,0.60
2018-04-06T11:46:05.676Z,0.60
2018-04-06T11:47:05.909Z,0.70
2018-04-06T11:48:06.139Z,1.00
2018-04-06T11:49:06.368Z,0.90
2018-04-06T11:50:06.593Z,0.40
2018-04-06T11:51:06.820Z,0.70
2018-04-06T11:52:07.051Z,0.90
2018-04-06T11:53:07.282Z,0.70
2018-04-06T11:54:07.560Z,0.70
2018-04-06T11:55:07.744Z,0.50
2018-04-06T11:56:07.959Z,0.80
2018-04-06T11:57:08.198Z,0.50
2018-04-06T11:58:08.431Z,0.80
2018-04-06T11:59:08.669Z,0.90
2018-04-06T12:00:08.903Z,0.70
2018-04-06T12:01:09.124Z,0.80
2018-04-06T12:02:09.350Z,0.50
2018-04-06T12:03:09.582Z,0.80
2018-04-06T12:04:09.816Z,0.60
2018-04-06T12:05:10.043Z,0.80
2018-04-06T12:06:10.276Z,0.50
2018-04-06T12:07:10.498Z,0.70
2018-04-06T12:08:10.736Z,0.90
2018-04-06T12:09:10.963Z,0.60
2018-04-06T12:10:11.194Z,0.90
2018-04-06T12:11:11.423Z,0.80
2018-04-06T12:12:11.653Z,0.70
2018-04-06T12:13:11.887Z,0.80
2018-04-06T12:14:12.113Z,0.70
2018-04-06T12:15:12.346Z,1.10
2018-04-06T12:16:12.574Z,0.70
2018-04-06T12:17:12.805Z,0.60
2018-04-06T12:18:13.033Z,0.80
2018-04-06T12:19:13.265Z,0.70
2018-04-06T12:20:13.494Z,1.20
2018-04-06T12:21:13.722Z,0.70
2018-04-06T12:22:13.962Z,0.80
2018-04-06T12:23:14.182Z,0.80
2018-04-06T12:24:14.411Z,0.60
2018-04-06T12:25:14.639Z,0.90
2018-04-06T12:26:14.870Z,0.70
2018-04-06T12:27:15.099Z,1.00
2018-04-06T12:28:15.328Z,0.60
2018-04-06T12:29:15.556Z,0.80
2018-04-06T12:30:15.792Z,0.80
2018-04-06T12:31:16.023Z,0.80
2018-04-06T12:32:16.254Z,0.80
2018-04-06T12:33:16.481Z,0.80
2018-04-06T12:34:16.713Z,0.60
2018-04-06T12:35:16.939Z,0.70
2018-04-06T12:36:17.177Z,0.60
2018-04-06T12:37:17.397Z,0.80
2018-04-06T12:38:17.629Z,0.80
2018-04-06T12:39:17.864Z,0.70
2018-04-06T12:40:18.085Z,0.60
2018-04-06T12:41:18.318Z,0.80
2018-04-06T12:42:18.556Z,1.00
2018-04-06T12:43:18.781Z,0.60
2018-04-06T12:44:19.010Z,0.60
2018-04-06T12:45:19.238Z,0.70
2018-04-06T12:46:19.472Z,0.70
2018-04-06T12:47:19.698Z,0.70
2018-04-06T12:48:19.927Z,0.70
2018-04-06T12:49:20.155Z,0.80
2018-04-06T12:50:20.386Z,0.80
2018-04-06T12:51:20.613Z,0.90
2018-04-06T12:52:20.842Z,0.50
2018-04-06T12:53:21.072Z,0.80
2018-04-06T12:54:21.299Z,1.00
2018-04-06T12:55:21.531Z,1.20
2018-04-06T12:56:21.757Z,0.80
2018-04-06T12:57:21.990Z,0.80
2018-04-06T12:58:22.228Z,0.90
2018-04-06T12:59:22.448Z,0.80
2018-04-06T13:00:22.681Z,0.90
2018-04-06T13:01:22.916Z,1.10
2018-04-06T13:02:23.143Z,1.20
2018-04-06T13:03:23.369Z,0.90
2018-04-06T13:04:23.600Z,1.10
2018-04-06T13:05:23.830Z,0.80
2018-04-06T13:06:24.055Z,0.90
2018-04-06T13:07:24.284Z,0.80
2018-04-06T13:08:24.518Z,0.90
2018-04-06T13:09:24.800Z,0.70
2018-04-06T13:10:24.980Z,0.80
2018-04-06T13:11:25.206Z,1.10
2018-04-06T13:12:25.437Z,0.90
2018-04-06T13:13:25.666Z,0.80
2018-04-06T13:14:25.892Z,0.90
2018-04-06T13:15:26.125Z,0.90
2018-04-06T13:16:26.352Z,0.70
2018-04-06T13:17:26.585Z,0.80
2018-04-06T13:18:26.817Z,0.70
2018-04-06T13:19:27.048Z,1.10
2018-04-06T13:20:27.280Z,0.70
2018-04-06T13:21:27.509Z,0.80